Time;durP1;ratioP1;P1;durP2;ratioP2;P2;SDS_P1;SDS_P2;PMS_P1;PMS_P2;Temp;Humidity;BMP_temperature;BMP_pressure;BME280_temperature;BME280_humidity;BME280_pressure;Samples;Min_cycle;Max_cycle;Signal;HPM_P1;HPM_P2
2021/09/11 00:00:50;;;;;;;12.77;11.55;;;18.80;99.90;;;;;;5092502;28;20196;-61
2021/09/11 00:03:18;;;;;;;12.48;11.27;;;18.80;99.90;;;;;;5092974;28;20204;-62
2021/09/11 00:05:47;;;;;;;13.05;11.65;;;18.70;99.90;;;;;;5092848;28;20232;-62
2021/09/11 00:08:15;;;;;;;13.10;11.90;;;18.60;99.90;;;;;;5092810;28;20206;-61
2021/09/11 00:10:43;;;;;;;14.50;12.68;;;18.60;99.90;;;;;;5092636;28;20204;-61
2021/09/11 00:13:10;;;;;;;13.02;11.70;;;18.60;99.90;;;;;;5092677;28;20232;-61
2021/09/11 00:15:38;;;;;;;13.00;11.80;;;18.50;99.90;;;;;;5092238;28;20215;-61
2021/09/11 00:18:07;;;;;;;13.15;11.75;;;18.50;99.90;;;;;;5092636;28;20202;-61
2021/09/11 00:20:35;;;;;;;13.93;11.73;;;18.40;99.90;;;;;;5092720;28;20200;-61
2021/09/11 00:23:09;;;;;;;13.88;12.48;;;18.40;99.90;;;;;;5092827;28;20200;-58
2021/09/11 00:25:38;;;;;;;14.48;13.18;;;18.30;99.90;;;;;;5092757;28;20287;-58
2021/09/11 00:28:06;;;;;;;14.63;12.48;;;18.30;99.90;;;;;;5092784;28;20206;-59
2021/09/11 00:30:34;;;;;;;13.82;12.52;;;18.30;99.90;;;;;;5092501;28;20222;-58
2021/09/11 00:33:02;;;;;;;14.20;12.73;;;18.20;99.90;;;;;;5092408;28;20200;-59
2021/09/11 00:35:30;;;;;;;14.27;12.88;;;18.20;99.90;;;;;;5092411;28;20222;-59
2021/09/11 00:37:58;;;;;;;14.45;12.93;;;18.10;99.90;;;;;;5092490;28;20294;-58
2021/09/11 00:40:27;;;;;;;14.05;12.73;;;18.10;99.90;;;;;;5092536;28;20200;-58
2021/09/11 00:42:55;;;;;;;14.30;12.85;;;18.10;99.90;;;;;;5092161;28;20204;-59
2021/09/11 00:45:24;;;;;;;15.10;13.60;;;18.00;99.90;;;;;;5092311;28;20562;-57
2021/09/11 00:47:52;;;;;;;15.63;14.02;;;18.00;99.90;;;;;;5092260;28;20283;-58
2021/09/11 00:50:21;;;;;;;15.95;14.35;;;18.00;99.90;;;;;;5092346;28;20298;-58
2021/09/11 00:52:50;;;;;;;16.15;14.25;;;18.00;99.90;;;;;;5092331;28;20203;-59
2021/09/11 00:55:19;;;;;;;14.35;12.88;;;18.00;99.90;;;;;;5091997;28;20778;-58
2021/09/11 00:57:50;;;;;;;17.20;14.32;;;17.90;99.90;;;;;;5092328;28;20291;-59
2021/09/11 01:00:18;;;;;;;15.45;13.80;;;17.90;99.90;;;;;;5092030;28;20287;-60
2021/09/11 01:02:46;;;;;;;15.27;13.27;;;17.90;99.90;;;;;;5091835;28;20727;-59
2021/09/11 01:05:15;;;;;;;14.80;13.40;;;17.90;99.90;;;;;;5091674;28;20619;-59
2021/09/11 01:07:46;;;;;;;15.90;14.18;;;17.80;99.90;;;;;;5092234;28;20310;-58
2021/09/11 01:10:14;;;;;;;15.60;13.90;;;17.80;99.90;;;;;;5092143;28;20184;-56
2021/09/11 01:12:43;;;;;;;15.85;14.35;;;17.90;99.90;;;;;;5092210;28;20196;-60
2021/09/11 01:15:13;;;;;;;15.90;14.30;;;17.90;99.90;;;;;;5091697;28;20560;-58
2021/09/11 01:17:43;;;;;;;15.23;13.73;;;17.90;99.90;;;;;;5091936;28;20204;-58
2021/09/11 01:20:12;;;;;;;14.40;13.07;;;17.90;99.90;;;;;;5092160;28;20271;-59
2021/09/11 01:22:40;;;;;;;16.13;13.15;;;17.90;99.90;;;;;;5091777;28;20211;-57
2021/09/11 01:25:11;;;;;;;14.27;12.88;;;18.00;99.90;;;;;;5092045;28;20192;-57
2021/09/11 01:27:39;;;;;;;14.25;12.85;;;18.00;99.90;;;;;;5092134;28;20191;-59
2021/09/11 01:30:11;;;;;;;14.50;13.10;;;18.00;99.90;;;;;;5091900;28;20608;-58
2021/09/11 01:32:39;;;;;;;14.45;13.15;;;18.10;99.90;;;;;;5091647;28;20184;-59
2021/09/11 01:35:09;;;;;;;14.32;12.85;;;18.10;99.90;;;;;;5091614;28;20200;-58
2021/09/11 01:37:37;;;;;;;14.07;12.68;;;18.10;99.90;;;;;;5091879;28;20204;-58
2021/09/11 01:40:06;;;;;;;13.75;11.95;;;18.10;99.90;;;;;;5091930;28;20203;-58
2021/09/11 01:42:36;;;;;;;13.48;12.18;;;18.10;99.90;;;;;;5092010;28;20211;-59
2021/09/11 01:45:08;;;;;;;14.13;12.65;;;18.10;99.90;;;;;;5091740;28;20203;-57
2021/09/11 01:47:36;;;;;;;14.68;13.30;;;18.10;99.90;;;;;;5091803;28;20267;-59
2021/09/11 01:50:06;;;;;;;14.02;12.13;;;18.10;99.90;;;;;;5091936;28;20204;-58
2021/09/11 01:52:34;;;;;;;13.98;12.65;;;18.10;99.90;;;;;;5091600;28;20760;-58
2021/09/11 01:55:04;;;;;;;13.45;12.15;;;18.20;99.90;;;;;;5091704;28;20600;-58
2021/09/11 01:57:32;;;;;;;13.48;12.15;;;18.20;99.90;;;;;;5092021;28;20640;-58
2021/09/11 02:00:01;;;;;;;14.13;12.40;;;18.20;99.90;;;;;;5091744;28;20200;-58
2021/09/11 02:02:29;;;;;;;13.18;11.88;;;18.20;99.90;;;;;;5091592;28;20196;-59
2021/09/11 02:04:57;;;;;;;12.60;11.38;;;18.20;99.90;;;;;;5091904;28;20281;-59
2021/09/11 02:07:24;;;;;;;13.45;12.05;;;18.20;99.90;;;;;;5091524;28;20232;-59
2021/09/11 02:09:52;;;;;;;13.80;12.43;;;18.20;99.90;;;;;;5095515;28;20208;-59
2021/09/11 02:12:20;;;;;;;13.40;12.10;;;18.30;99.90;;;;;;5095084;28;20295;-59
2021/09/11 02:14:48;;;;;;;14.25;12.85;;;18.30;99.90;;;;;;5087143;28;20204;-59
2021/09/11 02:17:17;;;;;;;14.57;13.27;;;18.30;99.90;;;;;;5079705;28;20221;-58
2021/09/11 02:19:45;;;;;;;15.15;12.98;;;18.40;99.90;;;;;;5074918;28;20213;-59
2021/09/11 02:22:12;;;;;;;14.10;12.70;;;18.40;99.90;;;;;;5075040;28;20201;-58
2021/09/11 02:24:40;;;;;;;14.13;12.68;;;18.40;99.90;;;;;;5074922;28;20295;-59
2021/09/11 02:27:09;;;;;;;12.90;11.55;;;18.40;99.90;;;;;;5074518;28;20745;-59
2021/09/11 02:29:36;;;;;;;13.60;12.30;;;18.50;99.90;;;;;;5074527;28;20236;-59
2021/09/11 02:32:05;;;;;;;13.63;12.05;;;18.50;99.90;;;;;;5074347;28;20300;-58
2021/09/11 02:34:35;;;;;;;13.80;12.43;;;18.50;99.90;;;;;;5074626;28;20321;-59
2021/09/11 02:37:03;;;;;;;12.15;10.95;;;18.50;99.90;;;;;;5084352;28;20238;-58
2021/09/11 02:39:30;;;;;;;13.10;11.80;;;18.50;99.90;;;;;;5094851;28;20235;-58
2021/09/11 02:41:58;;;;;;;13.32;12.10;;;18.40;99.90;;;;;;5094798;28;20208;-58
2021/09/11 02:44:26;;;;;;;13.05;11.85;;;18.40;99.90;;;;;;5094770;28;20315;-60
2021/09/11 02:46:54;;;;;;;15.15;12.43;;;18.40;99.90;;;;;;5094325;28;20303;-59
2021/09/11 02:49:22;;;;;;;13.43;12.02;;;18.40;99.90;;;;;;5094415;28;20292;-59
2021/09/11 02:51:51;;;;;;;12.88;11.57;;;18.40;99.90;;;;;;5094537;28;20656;-57
2021/09/11 02:54:19;;;;;;;13.77;12.38;;;18.30;99.90;;;;;;5094556;28;20222;-59
2021/09/11 02:56:46;;;;;;;12.48;11.38;;;18.30;99.90;;;;;;5094505;28;20229;-58
2021/09/11 02:59:14;;;;;;;13.45;12.15;;;18.30;99.90;;;;;;5094641;28;20230;-59
2021/09/11 03:01:42;;;;;;;13.00;11.82;;;18.30;99.90;;;;;;5093872;28;20204;-59
2021/09/11 03:04:10;;;;;;;14.07;12.68;;;18.30;99.90;;;;;;5094196;28;20562;-58
2021/09/11 03:06:38;;;;;;;13.15;11.85;;;18.20;99.90;;;;;;5093783;28;20314;-58
2021/09/11 03:09:07;;;;;;;13.77;11.77;;;18.20;99.90;;;;;;5093923;28;20668;-60
2021/09/11 03:11:35;;;;;;;13.48;12.13;;;18.20;99.90;;;;;;5094149;28;20203;-58
2021/09/11 03:14:03;;;;;;;12.98;11.75;;;18.20;99.90;;;;;;5094135;28;20235;-59
2021/09/11 03:16:31;;;;;;;13.55;12.15;;;18.20;99.90;;;;;;5093729;28;20218;-58
2021/09/11 03:18:58;;;;;;;13.75;12.35;;;18.30;99.90;;;;;;5093347;28;20214;-59
2021/09/11 03:21:26;;;;;;;13.60;12.07;;;18.30;99.90;;;;;;5093514;28;20204;-58
2021/09/11 03:23:54;;;;;;;13.02;11.73;;;18.30;99.90;;;;;;5093683;28;20242;-58
2021/09/11 03:26:23;;;;;;;13.25;11.95;;;18.40;99.90;;;;;;5093792;28;20199;-58
2021/09/11 03:28:51;;;;;;;12.60;11.07;;;18.40;99.90;;;;;;5093897;28;20200;-59
2021/09/11 03:31:19;;;;;;;12.20;11.07;;;18.40;99.90;;;;;;5093434;28;20200;-59
2021/09/11 03:33:47;;;;;;;12.70;11.50;;;18.50;99.90;;;;;;5093867;28;20200;-58
2021/09/11 03:36:14;;;;;;;12.93;11.73;;;18.50;99.90;;;;;;5093114;28;20234;-58
2021/09/11 03:38:42;;;;;;;12.05;10.85;;;18.40;99.90;;;;;;5093541;28;20204;-58
2021/09/11 03:41:11;;;;;;;13.65;12.35;;;18.50;99.90;;;;;;5093625;28;20282;-59
2021/09/11 03:43:40;;;;;;;12.15;11.00;;;18.50;99.90;;;;;;5093578;28;20307;-57
2021/09/11 03:46:08;;;;;;;12.20;11.00;;;18.50;99.90;;;;;;5092907;28;20200;-58
2021/09/11 03:48:36;;;;;;;11.25;10.15;;;18.60;99.90;;;;;;5093505;28;20196;-59
2021/09/11 03:51:04;;;;;;;10.50;9.57;;;18.50;99.90;;;;;;5093760;28;20290;-59
2021/09/11 03:53:32;;;;;;;13.43;10.25;;;18.50;99.90;;;;;;5093408;28;20543;-59
2021/09/11 03:55:59;;;;;;;12.82;11.63;;;18.50;99.90;;;;;;5093339;28;20202;-59
2021/09/11 03:58:27;;;;;;;11.13;10.13;;;18.50;99.90;;;;;;5093390;28;20326;-59
2021/09/11 04:00:58;;;;;;;11.90;10.30;;;18.50;99.90;;;;;;5093047;28;20202;-59
2021/09/11 04:03:27;;;;;;;12.07;10.88;;;18.50;99.90;;;;;;5092825;28;20223;-59
2021/09/11 04:05:55;;;;;;;12.18;10.98;;;18.50;99.90;;;;;;5092933;28;20228;-58
2021/09/11 04:08:24;;;;;;;11.77;10.77;;;18.50;99.90;;;;;;5093461;28;20202;-58
2021/09/11 04:10:51;;;;;;;13.48;12.07;;;18.50;99.90;;;;;;5092789;28;20205;-59
2021/09/11 04:13:19;;;;;;;13.95;12.57;;;18.50;99.90;;;;;;5092989;28;20295;-59
2021/09/11 04:15:47;;;;;;;13.52;12.25;;;18.50;99.90;;;;;;5092606;28;20250;-58
2021/09/11 04:18:16;;;;;;;13.82;12.52;;;18.60;99.90;;;;;;5092656;28;20298;-58
2021/09/11 04:20:44;;;;;;;14.95;13.55;;;18.50;99.90;;;;;;5092864;28;20597;-58
2021/09/11 04:23:12;;;;;;;14.70;13.20;;;18.60;99.90;;;;;;5092764;28;20283;-58
2021/09/11 04:25:40;;;;;;;14.90;13.35;;;18.60;99.90;;;;;;5092780;28;20291;-58
2021/09/11 04:28:07;;;;;;;14.27;12.98;;;18.60;99.90;;;;;;5092772;28;20199;-58
2021/09/11 04:30:35;;;;;;;14.38;12.98;;;18.60;99.90;;;;;;5091883;28;20295;-58
2021/09/11 04:33:03;;;;;;;15.50;13.90;;;18.60;99.90;;;;;;5092655;28;20306;-58
2021/09/11 04:35:33;;;;;;;14.52;13.02;;;18.60;99.90;;;;;;5092229;28;20206;-59
2021/09/11 04:38:01;;;;;;;14.55;13.25;;;18.60;99.90;;;;;;5092388;28;20778;-58
2021/09/11 04:40:29;;;;;;;14.00;12.70;;;18.60;99.90;;;;;;5092212;28;20664;-59
2021/09/11 04:42:57;;;;;;;14.20;12.80;;;18.60;99.90;;;;;;5092571;28;20202;-59
2021/09/11 04:45:25;;;;;;;15.23;12.98;;;18.60;99.90;;;;;;5092025;28;20299;-58
2021/09/11 04:47:53;;;;;;;14.10;12.70;;;18.60;99.90;;;;;;5092256;28;20790;-58
2021/09/11 04:50:21;;;;;;;14.68;13.27;;;18.60;99.90;;;;;;5092304;28;20200;-59
2021/09/11 04:52:50;;;;;;;17.40;13.30;;;18.60;99.90;;;;;;5092434;28;20219;-59
2021/09/11 04:55:19;;;;;;;14.65;13.23;;;18.50;99.90;;;;;;5092817;28;20199;-58
2021/09/11 04:57:47;;;;;;;15.38;13.68;;;18.60;99.90;;;;;;5092961;28;20222;-58
2021/09/11 05:00:16;;;;;;;15.75;14.00;;;18.60;99.90;;;;;;5092838;28;20210;-59
2021/09/11 05:02:43;;;;;;;16.67;14.15;;;18.60;99.90;;;;;;5092742;28;20206;-58
2021/09/11 05:05:12;;;;;;;16.92;14.07;;;18.60;99.90;;;;;;5092407;28;20585;-57
2021/09/11 05:07:40;;;;;;;15.80;14.20;;;18.70;99.90;;;;;;5092823;28;20196;-59
2021/09/11 05:10:10;;;;;;;15.23;13.70;;;18.80;99.90;;;;;;5092595;28;20543;-57
2021/09/11 05:12:38;;;;;;;15.70;13.02;;;18.80;99.90;;;;;;5092736;28;20230;-60
2021/09/11 05:15:06;;;;;;;14.88;13.35;;;18.90;99.90;;;;;;5092745;28;20286;-60
2021/09/11 05:17:34;;;;;;;13.77;12.38;;;18.90;99.90;;;;;;5092249;28;20314;-59
2021/09/11 05:20:02;;;;;;;16.10;13.85;;;18.90;99.90;;;;;;5092377;28;20660;-59
2021/09/11 05:22:30;;;;;;;15.63;13.95;;;19.00;99.90;;;;;;5092480;28;20200;-58
2021/09/11 05:24:58;;;;;;;14.90;13.23;;;19.00;99.90;;;;;;5092655;28;20636;-58
2021/09/11 05:27:27;;;;;;;14.48;12.90;;;19.00;99.90;;;;;;5092439;28;20743;-58
2021/09/11 05:29:55;;;;;;;15.00;13.50;;;19.10;99.90;;;;;;5091620;28;20813;-59
2021/09/11 05:32:22;;;;;;;15.32;13.70;;;19.10;99.90;;;;;;5091367;28;20574;-59
2021/09/11 05:34:50;;;;;;;14.68;13.02;;;19.10;99.90;;;;;;5091907;28;20286;-60
2021/09/11 05:37:18;;;;;;;14.85;13.35;;;19.20;99.90;;;;;;5091732;28;20214;-58
2021/09/11 05:39:46;;;;;;;14.45;13.00;;;19.10;99.90;;;;;;5091518;28;20647;-59
2021/09/11 05:42:14;;;;;;;13.77;12.38;;;19.20;99.90;;;;;;5091817;28;20200;-59
2021/09/11 05:44:43;;;;;;;13.23;11.93;;;19.10;99.90;;;;;;5095339;28;20200;-58
2021/09/11 05:47:11;;;;;;;14.18;12.77;;;19.20;99.90;;;;;;5095349;28;20262;-59
2021/09/11 05:49:38;;;;;;;15.93;13.52;;;19.20;99.90;;;;;;5095474;28;20287;-58
2021/09/11 05:52:07;;;;;;;14.18;12.77;;;19.20;99.90;;;;;;5096178;28;20210;-60
2021/09/11 05:54:35;;;;;;;14.52;12.40;;;19.10;99.90;;;;;;5096254;28;20292;-59
2021/09/11 05:57:03;;;;;;;14.90;13.30;;;19.10;99.90;;;;;;5096119;28;20200;-58
2021/09/11 05:59:30;;;;;;;14.07;12.85;;;19.10;99.90;;;;;;5095928;28;20260;-59
2021/09/11 06:02:00;;;;;;;15.02;13.63;;;19.10;99.90;;;;;;5095617;28;20196;-59
2021/09/11 06:04:28;;;;;;;17.30;14.23;;;19.20;99.90;;;;;;5091595;28;20223;-60
2021/09/11 06:06:56;;;;;;;15.00;13.65;;;19.20;99.90;;;;;;5095451;28;20330;-58
2021/09/11 06:09:23;;;;;;;15.25;13.82;;;19.20;99.90;;;;;;5095560;28;20282;-58
2021/09/11 06:11:51;;;;;;;14.73;13.13;;;19.30;99.90;;;;;;5095871;28;20768;-58
2021/09/11 06:14:19;;;;;;;14.05;12.75;;;19.30;99.90;;;;;;5095708;28;20246;-59
2021/09/11 06:16:47;;;;;;;13.52;12.20;;;19.30;99.90;;;;;;5095581;28;20647;-59
2021/09/11 06:19:16;;;;;;;13.85;12.45;;;19.40;99.90;;;;;;5095581;28;20227;-59
2021/09/11 06:21:44;;;;;;;12.98;11.65;;;19.50;99.90;;;;;;5095728;28;20671;-59
2021/09/11 06:24:12;;;;;;;12.95;11.70;;;19.60;99.90;;;;;;5095336;28;20346;-59
2021/09/11 06:26:40;;;;;;;11.93;10.82;;;19.60;99.90;;;;;;5095526;28;20202;-59
2021/09/11 06:29:07;;;;;;;12.90;11.70;;;19.70;99.90;;;;;;5095425;28;20616;-58
2021/09/11 06:31:35;;;;;;;12.57;11.30;;;19.70;99.90;;;;;;5095161;28;20291;-59
2021/09/11 06:34:03;;;;;;;13.32;12.13;;;19.80;99.90;;;;;;5095466;28;20200;-59
2021/09/11 06:36:32;;;;;;;13.02;11.65;;;19.90;99.90;;;;;;5095309;28;20204;-59
2021/09/11 06:39:00;;;;;;;12.57;11.48;;;20.00;99.90;;;;;;5094946;28;20235;-58
2021/09/11 06:41:28;;;;;;;13.32;11.93;;;20.10;99.90;;;;;;5095081;28;20208;-59
2021/09/11 06:43:56;;;;;;;12.48;11.27;;;20.10;99.90;;;;;;5095446;28;20553;-59
2021/09/11 06:46:28;;;;;;;12.73;11.43;;;20.20;99.90;;;;;;5095183;28;20700;-56
2021/09/11 06:48:56;;;;;;;10.60;9.52;;;20.30;99.90;;;;;;5095195;28;20600;-56
2021/09/11 06:51:24;;;;;;;12.02;10.85;;;20.30;99.90;;;;;;5094934;28;20206;-58
2021/09/11 06:53:53;;;;;;;11.77;10.68;;;20.30;99.90;;;;;;5094511;28;20232;-57
2021/09/11 06:56:21;;;;;;;12.40;11.10;;;20.30;99.90;;;;;;5094868;28;20663;-57
2021/09/11 06:58:49;;;;;;;11.02;10.02;;;20.20;99.90;;;;;;5094947;28;20239;-57
2021/09/11 07:01:17;;;;;;;11.07;9.98;;;20.30;99.90;;;;;;5094856;28;20210;-59
2021/09/11 07:03:45;;;;;;;11.40;10.30;;;20.30;99.90;;;;;;5094617;28;20227;-58
2021/09/11 07:06:14;;;;;;;11.48;10.40;;;20.30;99.90;;;;;;5094637;28;20231;-60
2021/09/11 07:08:42;;;;;;;11.85;10.70;;;20.30;99.90;;;;;;5094486;28;20192;-58
2021/09/11 07:11:12;;;;;;;12.27;10.18;;;20.30;99.90;;;;;;5094405;28;20236;-54
2021/09/11 07:13:40;;;;;;;11.73;10.52;;;20.30;99.90;;;;;;5094641;28;20275;-59
2021/09/11 07:16:08;;;;;;;11.77;10.57;;;20.30;99.90;;;;;;5094029;28;20204;-58
2021/09/11 07:18:37;;;;;;;11.15;10.15;;;20.20;99.90;;;;;;5093706;28;20219;-56
2021/09/11 07:21:05;;;;;;;10.77;9.77;;;20.20;99.90;;;;;;5093500;28;20543;-55
2021/09/11 07:23:34;;;;;;;10.60;9.65;;;20.10;99.90;;;;;;5093808;28;20306;-57
2021/09/11 07:26:02;;;;;;;12.10;10.05;;;20.10;99.90;;;;;;5093349;28;20211;-58
2021/09/11 07:28:31;;;;;;;10.60;9.60;;;20.10;99.90;;;;;;5093654;28;20290;-56
2021/09/11 07:30:59;;;;;;;11.35;10.35;;;20.20;99.90;;;;;;5093312;28;20291;-57
2021/09/11 07:33:28;;;;;;;11.05;9.95;;;20.10;99.90;;;;;;5093371;28;20195;-57
2021/09/11 07:35:56;;;;;;;13.60;10.13;;;20.10;99.90;;;;;;5093471;28;20200;-56
2021/09/11 07:38:24;;;;;;;11.52;10.40;;;20.30;99.90;;;;;;5093365;28;20203;-55
2021/09/11 07:40:51;;;;;;;10.93;9.93;;;20.20;99.90;;;;;;5093368;28;20199;-57
2021/09/11 07:43:19;;;;;;;9.80;8.80;;;20.30;99.90;;;;;;5093402;28;20294;-58
2021/09/11 07:45:48;;;;;;;10.70;9.70;;;20.50;99.90;;;;;;5093153;28;20199;-56
2021/09/11 07:48:16;;;;;;;11.45;10.05;;;20.50;99.90;;;;;;5093053;28;20231;-58
2021/09/11 07:50:44;;;;;;;12.02;10.30;;;20.70;99.90;;;;;;5093173;28;20231;-57
2021/09/11 07:53:14;;;;;;;10.40;9.35;;;20.70;99.90;;;;;;5093161;28;20200;-57
2021/09/11 07:55:42;;;;;;;12.60;9.93;;;20.90;99.90;;;;;;5093318;28;20200;-55
2021/09/11 07:58:10;;;;;;;10.98;9.88;;;20.90;99.90;;;;;;5093216;28;20204;-56
2021/09/11 08:00:38;;;;;;;10.13;9.07;;;21.00;99.90;;;;;;5092670;28;20220;-58
2021/09/11 08:03:07;;;;;;;10.27;9.27;;;21.10;99.90;;;;;;5092648;28;20196;-57
2021/09/11 08:05:37;;;;;;;9.13;8.35;;;21.10;99.90;;;;;;5091691;28;20718;-57
2021/09/11 08:08:05;;;;;;;10.10;9.13;;;21.10;99.90;;;;;;5092903;28;20283;-59
2021/09/11 08:10:33;;;;;;;9.55;8.68;;;21.20;99.90;;;;;;5092748;28;20227;-59
2021/09/11 08:13:01;;;;;;;9.82;8.93;;;21.20;99.90;;;;;;5092760;28;20203;-57
2021/09/11 08:15:28;;;;;;;11.05;9.52;;;21.20;99.90;;;;;;5092729;28;20206;-59
2021/09/11 08:17:56;;;;;;;9.10;8.27;;;21.10;99.90;;;;;;5092622;28;20206;-57
2021/09/11 08:20:25;;;;;;;10.23;9.23;;;21.10;99.90;;;;;;5092639;28;20219;-56
2021/09/11 08:22:53;;;;;;;10.07;9.25;;;21.20;99.90;;;;;;5092632;28;20284;-57
2021/09/11 08:25:21;;;;;;;9.15;8.35;;;21.10;99.90;;;;;;5092855;28;20206;-59
2021/09/11 08:27:49;;;;;;;8.38;7.57;;;21.30;99.90;;;;;;5092325;28;20587;-58
2021/09/11 08:30:17;;;;;;;9.85;8.90;;;21.40;99.90;;;;;;5092357;28;20556;-58
2021/09/11 08:32:44;;;;;;;9.15;8.10;;;21.60;99.90;;;;;;5092531;28;20200;-55
2021/09/11 08:35:13;;;;;;;9.75;8.85;;;21.80;99.90;;;;;;5092315;28;20200;-55
2021/09/11 08:37:43;;;;;;;10.60;8.30;;;22.00;99.90;;;;;;5092499;28;20207;-58
2021/09/11 08:40:13;;;;;;;8.40;7.40;;;22.10;99.90;;;;;;5092278;28;20224;-58
2021/09/11 08:42:41;;;;;;;8.82;7.93;;;22.10;99.90;;;;;;5092205;28;20204;-58
2021/09/11 08:45:13;;;;;;;8.70;7.82;;;22.20;99.90;;;;;;5092047;28;20221;-57
2021/09/11 08:47:45;;;;;;;8.13;7.43;;;22.20;99.90;;;;;;5092200;28;20180;-57
2021/09/11 08:50:16;;;;;;;8.80;7.90;;;22.30;99.90;;;;;;5091950;28;20288;-57
2021/09/11 08:52:46;;;;;;;8.40;7.57;;;22.30;99.90;;;;;;5092314;28;20200;-57
2021/09/11 08:55:16;;;;;;;8.23;7.53;;;22.50;99.90;;;;;;5091814;28;20238;-57
2021/09/11 08:57:58;;;;;;;8.10;7.40;;;22.40;99.90;;;;;;5091970;28;20207;-58
2021/09/11 09:00:41;;;;;;;7.20;6.60;;;22.50;99.90;;;;;;5091617;28;20667;-56
2021/09/11 09:03:40;;;;;;;7.72;7.03;;;22.50;99.90;;;;;;5091783;28;20184;-58
2021/09/11 09:06:28;;;;;;;6.80;6.20;;;22.50;99.90;;;;;;5028737;28;20229;-58
2021/09/11 09:09:04;;;;;;;7.38;6.68;;;22.50;99.90;;;;;;5086533;28;20287;-57
2021/09/11 09:11:35;;;;;;;6.22;5.60;;;22.50;99.90;;;;;;5091928;28;20184;-56
2021/09/11 09:14:04;;;;;;;6.75;6.05;;;22.60;99.90;;;;;;5091734;28;20663;-57
2021/09/11 09:16:34;;;;;;;6.40;5.90;;;22.60;99.90;;;;;;5091835;28;20202;-55
2021/09/11 09:19:05;;;;;;;6.82;6.15;;;22.60;99.90;;;;;;5094690;28;20271;-56
2021/09/11 09:21:33;;;;;;;5.40;5.00;;;22.60;99.90;;;;;;5096164;28;20188;-58
2021/09/11 09:24:04;;;;;;;6.18;5.68;;;22.70;99.90;;;;;;5095447;28;20662;-56
2021/09/11 09:26:48;;;;;;;5.25;4.75;;;22.60;99.90;;;;;;5096005;28;20185;-56
2021/09/11 09:29:17;;;;;;;5.70;5.20;;;22.50;99.90;;;;;;5096150;28;20279;-57
2021/09/11 09:31:49;;;;;;;5.70;5.15;;;22.40;99.90;;;;;;5095483;28;20576;-58
2021/09/11 09:34:31;;;;;;;6.68;5.70;;;22.30;99.90;;;;;;5095939;28;20256;-55
2021/09/11 09:37:02;;;;;;;6.00;5.40;;;22.30;99.90;;;;;;5095501;28;20204;-56
2021/09/11 09:39:38;;;;;;;5.82;5.25;;;22.50;99.90;;;;;;5096010;28;20184;-57
2021/09/11 09:42:06;;;;;;;5.53;5.03;;;22.70;99.90;;;;;;5096014;28;20291;-57
2021/09/11 09:44:41;;;;;;;6.05;5.25;;;22.90;99.90;;;;;;5095893;28;20195;-58
2021/09/11 09:47:13;;;;;;;5.90;4.60;;;23.00;99.90;;;;;;5095588;28;20728;-59
2021/09/11 09:49:41;;;;;;;5.32;4.72;;;23.20;99.90;;;;;;5095925;28;20185;-55
2021/09/11 09:52:10;;;;;;;7.40;4.57;;;23.60;99.90;;;;;;5095690;28;20200;-59
2021/09/11 09:54:39;;;;;;;4.45;4.00;;;24.00;99.90;;;;;;5095464;28;20283;-57
2021/09/11 09:57:08;;;;;;;4.28;3.88;;;24.10;99.90;;;;;;5095102;28;20222;-57
2021/09/11 09:59:38;;;;;;;8.02;4.30;;;24.30;99.90;;;;;;5095309;28;20202;-57
2021/09/11 10:02:06;;;;;;;4.32;3.80;;;24.10;99.90;;;;;;5095018;28;20223;-57
2021/09/11 10:04:35;;;;;;;5.07;4.53;;;23.90;99.90;;;;;;5095318;28;20200;-56
2021/09/11 10:07:06;;;;;;;5.07;4.68;;;23.90;99.90;;;;;;5094774;28;20243;-56
2021/09/11 10:09:35;;;;;;;5.93;5.35;;;23.90;99.90;;;;;;5094994;28;20617;-56
2021/09/11 10:12:25;;;;;;;7.65;5.18;;;23.80;99.90;;;;;;5094908;28;20870;-57
2021/09/11 10:14:55;;;;;;;5.15;4.75;;;23.60;99.90;;;;;;5094882;28;20243;-55
2021/09/11 10:17:33;;;;;;;6.72;5.15;;;23.60;99.90;;;;;;5094763;28;20180;-57
2021/09/11 10:20:01;;;;;;;5.38;4.85;;;23.90;99.90;;;;;;5094963;28;20294;-57
2021/09/11 10:22:30;;;;;;;5.63;5.13;;;24.20;99.90;;;;;;5094821;28;20280;-57
2021/09/11 10:25:05;;;;;;;5.07;4.68;;;24.40;99.90;;;;;;5094565;28;20299;-59
2021/09/11 10:27:35;;;;;;;5.97;4.60;;;24.40;99.90;;;;;;5095213;28;20275;-56
2021/09/11 10:30:10;;;;;;;4.70;4.30;;;24.60;99.90;;;;;;5094023;28;20204;-58
2021/09/11 10:32:40;;;;;;;4.00;3.60;;;24.80;99.90;;;;;;5094235;28;20695;-57
2021/09/11 10:35:11;;;;;;;4.25;3.90;;;24.80;99.90;;;;;;5094753;28;20196;-56
2021/09/11 10:37:44;;;;;;;4.10;3.80;;;24.90;99.90;;;;;;5094491;28;20204;-56
2021/09/11 10:40:27;;;;;;;4.35;4.00;;;24.90;99.90;;;;;;5094392;28;20238;-57
2021/09/11 10:43:28;;;;;;;4.22;3.75;;;24.90;99.90;;;;;;5094574;28;20208;-56
2021/09/11 10:46:06;;;;;;;3.70;3.40;;;24.70;99.90;;;;;;5093990;28;20599;-58
2021/09/11 10:48:49;;;;;;;4.43;3.55;;;24.50;99.90;;;;;;5094417;28;20184;-54
2021/09/11 10:51:34;;;;;;;5.10;3.15;;;24.30;99.90;;;;;;5093986;28;20185;-57
2021/09/11 10:54:08;;;;;;;4.20;3.00;;;24.30;99.90;;;;;;5094486;28;20188;-54
2021/09/11 10:56:39;;;;;;;2.85;2.55;;;24.60;99.90;;;;;;5094033;28;20187;-57
2021/09/11 10:59:32;;;;;;;3.10;2.80;;;25.00;99.90;;;;;;5094288;28;20211;-57
2021/09/11 11:02:08;;;;;;;3.20;2.38;;;25.10;99.90;;;;;;5093936;28;20220;-57
2021/09/11 11:04:40;;;;;;;2.47;2.28;;;25.30;99.90;;;;;;5093949;28;20624;-56
2021/09/11 11:07:10;;;;;;;2.95;2.75;;;25.50;99.90;;;;;;5093821;28;20322;-56
2021/09/11 11:09:39;;;;;;;2.47;2.28;;;25.60;99.90;;;;;;5094295;28;20287;-59
2021/09/11 11:12:09;;;;;;;3.42;2.40;;;25.80;99.90;;;;;;5093952;28;20196;-57
2021/09/11 11:14:45;;;;;;;2.92;2.53;;;25.70;99.90;;;;;;5094125;28;20667;-59
2021/09/11 11:17:15;;;;;;;2.70;2.10;;;25.80;99.90;;;;;;5093613;28;20190;-58
2021/09/11 11:19:44;;;;;;;2.63;2.42;;;25.70;99.90;;;;;;5093984;28;20276;-57
2021/09/11 11:22:14;;;;;;;2.63;2.42;;;25.60;99.90;;;;;;5093689;28;20226;-57
2021/09/11 11:24:45;;;;;;;2.30;2.10;;;25.60;99.90;;;;;;5093954;28;20341;-57
2021/09/11 11:27:15;;;;;;;4.63;2.60;;;25.50;99.90;;;;;;5093633;28;20595;-57
2021/09/11 11:29:44;;;;;;;3.85;3.00;;;25.40;99.90;;;;;;5093877;28;20243;-58
2021/09/11 11:32:14;;;;;;;2.85;2.25;;;25.20;99.90;;;;;;5093513;28;20232;-57
2021/09/11 11:34:42;;;;;;;2.58;2.38;;;25.10;99.90;;;;;;5093380;28;20790;-59
2021/09/11 11:37:11;;;;;;;2.25;1.90;;;25.00;99.90;;;;;;5093735;28;20208;-56
2021/09/11 11:39:41;;;;;;;1.90;1.80;;;24.90;99.90;;;;;;5093508;28;20283;-56
2021/09/11 11:42:19;;;;;;;3.40;2.17;;;24.90;99.90;;;;;;5092793;28;20212;-59
2021/09/11 11:44:48;;;;;;;4.07;2.35;;;24.80;99.90;;;;;;5093514;28;20496;-58
2021/09/11 11:47:30;;;;;;;2.35;2.13;;;24.80;99.90;;;;;;5092872;28;20203;-58
2021/09/11 11:49:58;;;;;;;2.42;2.22;;;25.00;99.90;;;;;;5093361;28;20195;-57
2021/09/11 11:52:27;;;;;;;2.75;2.47;;;24.90;99.90;;;;;;5093397;28;20196;-59
2021/09/11 11:54:55;;;;;;;2.58;2.22;;;25.00;99.90;;;;;;5093334;28;20286;-58
2021/09/11 11:57:24;;;;;;;2.55;2.35;;;25.10;99.90;;;;;;5093133;28;20670;-57
2021/09/11 11:59:59;;;;;;;3.30;2.40;;;25.10;99.90;;;;;;5092961;28;20812;-58
2021/09/11 12:02:30;;;;;;;2.30;2.10;;;25.30;99.90;;;;;;5092888;28;20314;-59
2021/09/11 12:05:14;;;;;;;2.85;2.65;;;25.30;99.90;;;;;;5093126;28;20279;-58
2021/09/11 12:07:55;;;;;;;3.28;2.47;;;25.30;99.90;;;;;;5092883;28;20199;-58
2021/09/11 12:10:25;;;;;;;2.95;2.75;;;25.30;99.90;;;;;;5092830;28;20734;-57
2021/09/11 12:12:54;;;;;;;3.10;2.90;;;25.10;99.90;;;;;;5093056;28;20283;-57
2021/09/11 12:15:24;;;;;;;3.05;2.75;;;25.10;99.90;;;;;;5092773;28;20253;-58
2021/09/11 12:17:58;;;;;;;3.28;2.90;;;25.00;99.90;;;;;;5092785;28;20230;-60
2021/09/11 12:20:43;;;;;;;3.55;2.95;;;25.10;99.90;;;;;;5092791;28;20192;-58
2021/09/11 12:23:17;;;;;;;3.35;2.88;;;25.10;99.90;;;;;;5092599;28;20628;-58
2021/09/11 12:25:57;;;;;;;4.88;2.85;;;25.20;99.90;;;;;;5092921;28;20184;-61
2021/09/11 12:28:43;;;;;;;3.92;3.20;;;25.20;99.90;;;;;;5092827;28;20185;-60
2021/09/11 12:31:22;;;;;;;3.33;2.80;;;25.00;99.90;;;;;;5092613;28;20197;-58
2021/09/11 12:33:54;;;;;;;3.22;2.92;;;24.80;99.90;;;;;;5092614;28;20208;-58
2021/09/11 12:36:25;;;;;;;3.22;2.95;;;24.70;99.90;;;;;;5092507;28;20196;-58
2021/09/11 12:38:53;;;;;;;3.50;3.15;;;24.60;99.90;;;;;;5092633;28;20184;-57
2021/09/11 12:41:22;;;;;;;3.53;2.60;;;24.60;99.90;;;;;;5092530;28;20216;-58
2021/09/11 12:43:50;;;;;;;3.20;2.70;;;24.40;99.90;;;;;;5092413;28;20203;-56
2021/09/11 12:46:29;;;;;;;3.10;2.85;;;24.20;99.90;;;;;;5092193;28;20195;-58
2021/09/11 12:48:58;;;;;;;3.20;2.70;;;24.20;99.90;;;;;;5092466;28;20188;-55